Time;durP1;ratioP1;P1;durP2;ratioP2;P2;SDS_P1;SDS_P2;PMS_P1;PMS_P2;Temp;Humidity;BMP_temperature;BMP_pressure;BME280_temperature;BME280_humidity;BME280_pressure;Samples;Min_cycle;Max_cycle;Signal;HPM_P1;HPM_P2
2023/05/24 00:01:28;;;;;;;6.47;3.40;;;14.30;99.90;;;;;;4979217;28;20034;-79
2023/05/24 00:03:57;;;;;;;4.38;3.15;;;14.20;99.90;;;;;;4979265;28;20031;-80
2023/05/24 00:06:25;;;;;;;5.75;3.10;;;14.20;99.90;;;;;;4978723;28;20137;-78
2023/05/24 00:08:51;;;;;;;6.13;3.42;;;14.20;99.90;;;;;;4978455;28;20603;-78
2023/05/24 00:11:17;;;;;;;5.40;3.38;;;14.10;99.90;;;;;;4978910;28;20473;-77
2023/05/24 00:13:42;;;;;;;4.88;3.15;;;14.10;99.90;;;;;;4978206;28;20027;-78
2023/05/24 00:16:08;;;;;;;8.23;3.58;;;14.10;99.90;;;;;;4978095;28;20039;-80
2023/05/24 00:18:39;;;;;;;5.13;3.25;;;14.00;99.90;;;;;;4977630;28;20466;-80
2023/05/24 00:21:12;;;;;;;4.10;3.05;;;13.90;99.90;;;;;;4975667;28;20033;-80
2023/05/24 00:23:38;;;;;;;7.30;3.10;;;13.90;99.90;;;;;;4978641;28;20102;-80
2023/05/24 00:26:04;;;;;;;5.07;3.28;;;13.90;99.90;;;;;;4982191;28;20195;-79
2023/05/24 00:28:30;;;;;;;5.88;3.20;;;13.80;99.90;;;;;;4990812;28;20392;-79
2023/05/24 00:30:57;;;;;;;6.75;3.75;;;13.90;99.90;;;;;;4982943;28;20030;-78
2023/05/24 00:33:23;;;;;;;5.10;3.47;;;13.80;99.90;;;;;;4980131;28;20027;-79
2023/05/24 00:35:53;;;;;;;6.57;3.83;;;13.80;99.90;;;;;;4978273;28;20026;-78
2023/05/24 00:38:18;;;;;;;6.57;3.70;;;13.70;99.90;;;;;;4986284;28;20062;-78
2023/05/24 00:40:44;;;;;;;5.90;3.60;;;13.60;99.90;;;;;;4980836;28;20037;-79
2023/05/24 00:43:13;;;;;;;5.55;3.40;;;13.70;99.90;;;;;;4979803;28;20093;-80
2023/05/24 00:45:38;;;;;;;5.43;3.42;;;13.60;99.90;;;;;;4997625;28;20030;-80
2023/05/24 00:48:04;;;;;;;7.03;3.88;;;13.60;99.90;;;;;;4978987;28;20563;-81
2023/05/24 00:50:33;;;;;;;6.50;3.80;;;13.60;99.90;;;;;;4978166;28;20547;-80
2023/05/24 00:53:01;;;;;;;9.95;3.35;;;13.60;99.90;;;;;;4979115;28;20057;-81
2023/05/24 00:55:28;;;;;;;6.00;3.40;;;13.60;99.90;;;;;;4979137;28;20047;-80
2023/05/24 00:57:56;;;;;;;4.72;3.42;;;13.70;99.90;;;;;;4978247;28;20038;-79
2023/05/24 01:00:22;;;;;;;4.97;3.38;;;13.60;99.90;;;;;;4978040;28;20078;-78
2023/05/24 01:02:49;;;;;;;5.07;3.40;;;13.60;99.90;;;;;;4977936;28;20023;-79
2023/05/24 01:05:16;;;;;;;8.95;4.00;;;13.50;99.90;;;;;;4981308;28;20027;-79
2023/05/24 01:08:04;;;;;;;4.95;3.30;;;13.50;99.90;;;;;;4982679;28;20019;-79
2023/05/24 01:10:51;;;;;;;7.78;3.35;;;13.40;99.90;;;;;;4980504;28;20025;-79
2023/05/24 01:13:28;;;;;;;4.88;3.85;;;13.50;99.90;;;;;;4975512;28;20031;-78
2023/05/24 01:15:56;;;;;;;6.53;3.72;;;13.60;99.90;;;;;;4976805;28;20063;-79
2023/05/24 01:18:29;;;;;;;9.15;3.70;;;13.60;99.90;;;;;;4974667;28;20374;-77
2023/05/24 01:21:06;;;;;;;5.78;3.75;;;13.60;99.90;;;;;;4978234;28;20114;-78
2023/05/24 01:23:40;;;;;;;6.55;3.63;;;13.60;99.90;;;;;;4984840;28;20022;-77
2023/05/24 01:26:30;;;;;;;5.70;3.00;;;13.60;99.90;;;;;;4981724;28;20062;-78
2023/05/24 01:28:56;;;;;;;5.93;3.40;;;13.50;99.90;;;;;;4973436;28;20102;-78
2023/05/24 01:31:23;;;;;;;5.68;3.60;;;13.50;99.90;;;;;;4980454;28;20025;-79
2023/05/24 01:33:48;;;;;;;5.68;3.10;;;13.60;99.90;;;;;;4975965;28;20030;-79
2023/05/24 01:36:14;;;;;;;4.45;3.05;;;13.60;99.90;;;;;;4977742;28;20023;-79
2023/05/24 01:38:40;;;;;;;5.63;3.17;;;13.50;99.90;;;;;;4994484;28;20050;-80
2023/05/24 01:41:38;;;;;;;5.32;3.47;;;13.50;99.90;;;;;;4988884;28;20027;-79
2023/05/24 01:44:58;;;;;;;7.13;3.63;;;13.50;99.90;;;;;;4976024;28;20058;-80
2023/05/24 01:47:26;;;;;;;6.82;3.47;;;13.50;99.90;;;;;;4935105;29;20031;-79
2023/05/24 01:49:59;;;;;;;6.88;3.05;;;13.50;99.90;;;;;;4968983;28;20051;-79
2023/05/24 01:52:30;;;;;;;5.50;3.58;;;13.50;99.90;;;;;;4977434;28;20105;-79
2023/05/24 01:54:56;;;;;;;5.63;3.40;;;13.40;99.90;;;;;;4976442;28;20027;-79
2023/05/24 01:57:23;;;;;;;6.28;2.97;;;13.40;99.90;;;;;;4977378;28;20114;-79
2023/05/24 01:59:50;;;;;;;6.20;2.80;;;13.40;99.90;;;;;;4974815;28;20035;-79
2023/05/24 02:02:16;;;;;;;7.10;2.90;;;13.40;99.90;;;;;;4976055;28;20470;-77
2023/05/24 02:04:42;;;;;;;4.78;2.78;;;13.40;99.90;;;;;;4976163;28;20084;-79
2023/05/24 02:07:08;;;;;;;6.80;3.05;;;13.40;99.90;;;;;;4974809;28;20027;-80
2023/05/24 02:09:33;;;;;;;10.18;3.38;;;13.40;99.90;;;;;;4976036;28;20127;-79
2023/05/24 02:11:59;;;;;;;4.82;2.75;;;13.40;99.90;;;;;;4975954;28;20046;-78
2023/05/24 02:14:25;;;;;;;7.70;2.90;;;13.40;99.90;;;;;;4975679;28;20031;-79
2023/05/24 02:16:51;;;;;;;5.75;2.72;;;13.50;99.90;;;;;;4975866;28;20033;-78
2023/05/24 02:19:16;;;;;;;4.97;2.30;;;13.40;99.90;;;;;;4975293;28;20058;-80
2023/05/24 02:21:42;;;;;;;9.52;3.35;;;13.40;99.90;;;;;;4973806;28;20026;-78
2023/05/24 02:24:10;;;;;;;7.05;2.83;;;13.40;99.90;;;;;;4975263;28;20050;-78
2023/05/24 02:26:36;;;;;;;7.60;2.97;;;13.30;99.90;;;;;;4973252;28;20521;-78
2023/05/24 02:29:02;;;;;;;9.43;3.42;;;13.30;99.90;;;;;;4972876;28;20378;-77
2023/05/24 02:31:28;;;;;;;5.35;2.45;;;13.20;99.90;;;;;;4974504;28;20046;-79
2023/05/24 02:33:55;;;;;;;6.25;2.50;;;13.20;99.90;;;;;;4973126;28;20027;-80
2023/05/24 02:36:22;;;;;;;8.90;2.83;;;13.20;99.90;;;;;;4975217;28;20031;-79
2023/05/24 02:38:48;;;;;;;5.57;2.70;;;13.20;99.90;;;;;;4972576;28;20034;-77
2023/05/24 02:41:16;;;;;;;6.38;2.58;;;13.20;99.90;;;;;;4974954;28;20334;-78
2023/05/24 02:43:43;;;;;;;5.43;3.25;;;13.20;99.90;;;;;;4974546;28;20109;-79
2023/05/24 02:46:08;;;;;;;8.23;3.00;;;13.20;99.90;;;;;;4978616;28;20023;-77
2023/05/24 02:48:35;;;;;;;7.00;2.90;;;13.20;99.90;;;;;;4975467;28;20113;-77
2023/05/24 02:51:02;;;;;;;8.43;3.17;;;13.10;99.90;;;;;;4981876;28;20058;-80
2023/05/24 02:53:28;;;;;;;9.00;3.63;;;13.20;99.90;;;;;;4975529;28;20026;-79
2023/05/24 02:55:54;;;;;;;7.45;3.35;;;13.20;99.90;;;;;;4977380;28;20035;-79
2023/05/24 02:58:19;;;;;;;8.10;3.00;;;13.20;99.90;;;;;;4969720;28;20035;-79
2023/05/24 03:00:45;;;;;;;5.95;3.22;;;13.10;99.90;;;;;;4973452;28;20105;-80
2023/05/24 03:03:11;;;;;;;5.95;3.15;;;13.00;99.90;;;;;;4974872;28;20085;-79
2023/05/24 03:05:37;;;;;;;12.63;4.18;;;12.90;99.90;;;;;;4972988;28;20489;-79
2023/05/24 03:08:03;;;;;;;7.78;3.25;;;12.90;99.90;;;;;;4972049;28;20011;-79
2023/05/24 03:10:31;;;;;;;9.02;3.83;;;12.80;99.90;;;;;;4973369;28;20019;-80
2023/05/24 03:12:57;;;;;;;6.95;3.53;;;12.80;99.90;;;;;;4970583;28;20058;-79
2023/05/24 03:15:22;;;;;;;9.75;3.47;;;12.70;99.90;;;;;;4974269;28;20022;-81
2023/05/24 03:17:48;;;;;;;9.02;3.95;;;12.70;99.90;;;;;;4973147;28;20019;-79
2023/05/24 03:20:19;;;;;;;10.60;3.35;;;12.70;99.90;;;;;;5003116;28;20060;-80
2023/05/24 03:22:45;;;;;;;11.35;4.30;;;12.60;99.90;;;;;;4966246;28;20523;-80
2023/05/24 03:25:11;;;;;;;6.43;3.25;;;12.70;99.90;;;;;;5000680;28;20065;-79
2023/05/24 03:27:36;;;;;;;7.97;3.45;;;12.60;99.90;;;;;;4973814;28;20030;-80
2023/05/24 03:30:05;;;;;;;10.27;3.78;;;12.60;99.90;;;;;;4975435;28;20046;-78
2023/05/24 03:32:31;;;;;;;5.90;3.25;;;12.60;99.90;;;;;;4970863;28;20030;-79
2023/05/24 03:34:59;;;;;;;14.10;3.60;;;12.60;99.90;;;;;;4969674;28;20066;-79
2023/05/24 03:37:25;;;;;;;8.48;3.28;;;12.60;99.90;;;;;;4969964;28;20383;-80
2023/05/24 03:39:50;;;;;;;8.25;3.55;;;12.50;99.90;;;;;;4972779;28;20034;-80
2023/05/24 03:42:16;;;;;;;7.75;3.65;;;12.50;99.90;;;;;;4971492;28;20050;-81
2023/05/24 03:44:47;;;;;;;12.57;4.00;;;12.50;99.90;;;;;;4972429;28;20117;-81
2023/05/24 03:47:13;;;;;;;11.95;3.92;;;12.50;99.90;;;;;;4970986;28;20045;-81
2023/05/24 03:49:39;;;;;;;8.75;3.85;;;12.50;99.90;;;;;;4974811;28;20022;-80
2023/05/24 03:52:04;;;;;;;12.40;3.85;;;12.50;99.90;;;;;;4971831;28;20031;-80
2023/05/24 03:54:33;;;;;;;14.43;4.00;;;12.50;99.90;;;;;;4976241;28;20015;-80
2023/05/24 03:56:58;;;;;;;6.28;3.42;;;12.50;99.90;;;;;;4971272;28;20038;-79
2023/05/24 03:59:24;;;;;;;18.17;4.18;;;12.40;99.90;;;;;;4974432;28;20030;-80
2023/05/24 04:01:50;;;;;;;8.80;3.75;;;12.40;99.90;;;;;;4976165;28;20038;-80
2023/05/24 04:04:15;;;;;;;13.52;3.85;;;12.50;99.90;;;;;;4972533;28;20161;-81
2023/05/24 04:06:41;;;;;;;8.52;4.00;;;12.50;99.90;;;;;;4976516;28;20425;-81
2023/05/24 04:09:07;;;;;;;10.70;3.88;;;12.40;99.90;;;;;;4974703;28;20595;-81
2023/05/24 04:11:32;;;;;;;11.02;3.80;;;12.40;99.90;;;;;;5009824;28;20023;-81
2023/05/24 04:14:02;;;;;;;10.35;4.03;;;12.40;99.90;;;;;;4975616;28;20027;-79
2023/05/24 04:16:27;;;;;;;10.25;3.90;;;12.30;99.90;;;;;;4972295;28;20030;-78
2023/05/24 04:18:56;;;;;;;9.55;4.03;;;12.20;99.90;;;;;;4975504;28;20061;-80
2023/05/24 04:21:22;;;;;;;14.00;4.38;;;12.10;99.90;;;;;;5007894;28;20034;-81
2023/05/24 04:23:51;;;;;;;10.05;3.85;;;12.10;99.90;;;;;;4977129;28;20018;-80
2023/05/24 04:26:17;;;;;;;14.77;3.53;;;12.10;99.90;;;;;;5008417;28;20130;-80
2023/05/24 04:28:48;;;;;;;7.43;3.95;;;12.10;99.90;;;;;;4976963;28;20050;-79
2023/05/24 04:31:16;;;;;;;9.77;3.58;;;12.10;99.90;;;;;;4977585;28;20026;-77
2023/05/24 04:33:42;;;;;;;7.22;4.05;;;12.20;99.90;;;;;;4974402;28;20116;-79
2023/05/24 04:36:10;;;;;;;9.13;4.05;;;12.20;99.90;;;;;;4975657;28;20035;-78
2023/05/24 04:38:37;;;;;;;10.35;4.10;;;12.20;99.90;;;;;;4971049;28;20462;-78
2023/05/24 04:41:04;;;;;;;8.93;4.18;;;12.20;99.90;;;;;;4971659;28;20379;-78
2023/05/24 04:43:30;;;;;;;10.95;4.22;;;12.10;99.90;;;;;;4971605;28;20034;-78
2023/05/24 04:45:56;;;;;;;7.72;3.35;;;12.20;99.90;;;;;;4979410;28;20046;-78
2023/05/24 04:48:28;;;;;;;12.45;4.95;;;12.20;99.90;;;;;;4998866;23;20042;-86
2023/05/24 04:50:57;;;;;;;8.80;4.00;;;12.20;99.90;;;;;;4967053;28;20406;-85
2023/05/24 04:53:26;;;;;;;11.77;4.40;;;12.20;99.90;;;;;;4950589;28;20034;-86
2023/05/24 04:55:55;;;;;;;9.63;4.18;;;12.20;99.90;;;;;;4949460;28;20119;-85
2023/05/24 04:58:20;;;;;;;11.25;4.28;;;12.30;99.90;;;;;;4952355;28;20055;-87
2023/05/24 05:00:49;;;;;;;9.18;3.88;;;12.30;99.90;;;;;;4973608;23;20047;-77
2023/05/24 05:03:17;;;;;;;12.40;4.25;;;12.30;99.90;;;;;;4982590;28;20019;-77
2023/05/24 05:05:44;;;;;;;10.07;3.80;;;12.30;99.90;;;;;;4980828;28;20035;-76
2023/05/24 05:08:09;;;;;;;11.65;4.53;;;12.30;99.90;;;;;;4971662;28;20023;-75
2023/05/24 05:10:38;;;;;;;10.57;4.15;;;12.30;99.90;;;;;;4960649;28;20030;-77
2023/05/24 05:13:06;;;;;;;10.27;4.00;;;12.30;99.90;;;;;;4952373;28;20406;-76
2023/05/24 05:15:32;;;;;;;12.48;4.65;;;12.30;99.90;;;;;;4950703;28;20087;-76
2023/05/24 05:18:04;;;;;;;20.35;4.57;;;12.30;99.90;;;;;;4989394;28;20074;-76
2023/05/24 05:20:30;;;;;;;12.95;4.07;;;12.30;99.90;;;;;;4958040;28;20066;-75
2023/05/24 05:23:07;;;;;;;7.95;4.03;;;12.30;99.90;;;;;;4952113;28;20630;-77
2023/05/24 05:25:34;;;;;;;12.77;4.80;;;12.40;99.90;;;;;;4951965;28;20011;-77
2023/05/24 05:28:00;;;;;;;12.60;4.28;;;12.40;99.90;;;;;;4955814;28;20034;-76
2023/05/24 05:30:25;;;;;;;12.02;4.00;;;12.40;99.90;;;;;;4993670;28;20019;-77
2023/05/24 05:32:51;;;;;;;9.63;3.50;;;12.40;99.90;;;;;;4960374;28;20363;-76
2023/05/24 05:35:22;;;;;;;13.43;3.97;;;12.40;99.90;;;;;;4963206;28;20031;-77
2023/05/24 05:37:54;;;;;;;9.43;4.25;;;12.30;99.90;;;;;;4963844;28;20027;-77
2023/05/24 05:40:19;;;;;;;16.60;4.25;;;12.30;99.90;;;;;;4946096;28;20031;-77
2023/05/24 05:42:46;;;;;;;13.38;4.18;;;12.20;99.90;;;;;;4961519;28;20140;-77
2023/05/24 05:45:17;;;;;;;9.25;3.85;;;12.20;99.90;;;;;;4970442;28;20049;-77
2023/05/24 05:47:43;;;;;;;10.25;3.92;;;12.20;99.90;;;;;;4960986;29;20019;-77
2023/05/24 05:50:21;;;;;;;9.68;3.75;;;12.20;99.90;;;;;;4957300;28;20119;-76
2023/05/24 05:52:47;;;;;;;12.32;4.85;;;12.30;99.90;;;;;;4957378;28;20028;-76
2023/05/24 05:55:12;;;;;;;9.82;4.75;;;12.20;99.90;;;;;;4953258;28;20027;-76
2023/05/24 05:57:38;;;;;;;11.80;4.43;;;12.30;99.90;;;;;;4957466;28;20082;-76
2023/05/24 06:00:04;;;;;;;12.93;4.50;;;12.30;99.90;;;;;;4952124;28;20042;-76
2023/05/24 06:02:30;;;;;;;13.73;3.95;;;12.30;99.90;;;;;;4955298;28;20115;-75
2023/05/24 06:04:55;;;;;;;9.13;3.92;;;12.30;99.90;;;;;;4952892;28;20087;-75
2023/05/24 06:07:21;;;;;;;16.33;4.25;;;12.30;99.90;;;;;;4955929;28;20034;-77
2023/05/24 06:09:46;;;;;;;19.40;4.95;;;12.40;99.90;;;;;;4956968;28;20092;-75
2023/05/24 06:12:12;;;;;;;10.63;4.05;;;12.30;99.90;;;;;;4953383;28;20130;-75
2023/05/24 06:14:38;;;;;;;11.02;4.55;;;12.30;99.90;;;;;;4948854;28;20037;-73
2023/05/24 06:17:04;;;;;;;12.98;4.25;;;12.40;99.90;;;;;;4955788;28;20047;-78
2023/05/24 06:19:33;;;;;;;8.43;4.05;;;12.30;99.90;;;;;;4971192;28;20039;-76
2023/05/24 06:21:59;;;;;;;12.13;4.70;;;12.40;99.90;;;;;;4959740;28;20106;-76
2023/05/24 06:24:27;;;;;;;10.73;4.28;;;12.30;99.90;;;;;;4957883;28;20019;-77
2023/05/24 06:26:53;;;;;;;10.40;4.28;;;12.30;99.90;;;;;;4958527;28;20019;-75
2023/05/24 06:29:20;;;;;;;14.68;4.75;;;12.30;99.90;;;;;;4956982;28;20083;-76
2023/05/24 06:31:46;;;;;;;8.10;4.50;;;12.30;99.90;;;;;;4958898;28;20443;-77
2023/05/24 06:34:15;;;;;;;10.75;4.40;;;12.30;99.90;;;;;;4961844;28;20042;-76
2023/05/24 06:36:41;;;;;;;13.07;4.72;;;12.30;99.90;;;;;;4959835;28;20035;-77
2023/05/24 06:39:11;;;;;;;13.13;4.40;;;12.30;99.90;;;;;;4973237;28;20124;-76
2023/05/24 06:41:38;;;;;;;14.88;4.78;;;12.30;99.90;;;;;;4961312;28;20015;-77
2023/05/24 06:44:07;;;;;;;19.65;4.43;;;12.30;99.90;;;;;;4990265;28;20397;-77
2023/05/24 06:46:33;;;;;;;11.82;4.93;;;12.40;99.90;;;;;;4954853;28;20082;-72
2023/05/24 06:48:59;;;;;;;13.57;4.85;;;12.40;99.90;;;;;;4947217;28;20031;-72
2023/05/24 06:51:24;;;;;;;10.73;4.68;;;12.40;99.90;;;;;;4949776;28;20442;-72
2023/05/24 06:53:50;;;;;;;12.30;5.30;;;12.40;99.90;;;;;;4949854;28;20074;-73
2023/05/24 06:56:16;;;;;;;13.02;5.22;;;12.40;99.90;;;;;;4947364;28;20027;-72
2023/05/24 06:58:42;;;;;;;12.77;4.68;;;12.50;99.90;;;;;;4944510;28;20047;-72
2023/05/24 07:01:08;;;;;;;13.00;4.20;;;12.50;99.90;;;;;;4962964;28;20054;-77
2023/05/24 07:03:34;;;;;;;11.32;4.38;;;12.60;99.90;;;;;;4958835;28;20027;-78
2023/05/24 07:06:12;;;;;;;11.48;4.93;;;12.70;99.90;;;;;;4957882;28;20035;-78
2023/05/24 07:08:40;;;;;;;9.07;4.55;;;12.70;99.90;;;;;;4965065;28;20026;-76
2023/05/24 07:11:12;;;;;;;9.07;4.45;;;12.70;99.90;;;;;;4961898;28;20489;-77
2023/05/24 07:13:38;;;;;;;10.90;4.40;;;12.80;99.90;;;;;;4959699;28;20075;-77
2023/05/24 07:16:06;;;;;;;13.23;4.57;;;12.80;99.90;;;;;;4957565;28;20782;-77
2023/05/24 07:18:35;;;;;;;10.95;4.00;;;12.80;99.90;;;;;;4959363;28;20031;-76
2023/05/24 07:21:01;;;;;;;13.57;4.53;;;12.80;99.90;;;;;;4952635;28;20094;-76
2023/05/24 07:23:27;;;;;;;9.77;4.72;;;12.90;99.90;;;;;;4953721;28;20498;-76
2023/05/24 07:25:52;;;;;;;11.50;4.60;;;13.00;99.90;;;;;;4952426;28;20076;-73
2023/05/24 07:28:19;;;;;;;10.85;4.55;;;13.00;99.90;;;;;;4953101;28;20115;-75
2023/05/24 07:30:45;;;;;;;13.98;5.10;;;13.00;99.90;;;;;;4953142;28;20051;-74
2023/05/24 07:33:11;;;;;;;12.20;4.30;;;13.10;99.90;;;;;;4959884;28;20086;-73
2023/05/24 07:35:37;;;;;;;15.57;4.38;;;13.10;99.90;;;;;;4968946;28;20692;-75
2023/05/24 07:38:06;;;;;;;10.68;3.95;;;13.10;99.90;;;;;;4957733;28;20023;-74
2023/05/24 07:40:32;;;;;;;11.27;4.40;;;13.10;99.90;;;;;;4958634;28;20023;-76
2023/05/24 07:42:57;;;;;;;12.70;4.90;;;13.10;99.90;;;;;;4958159;28;20031;-75
2023/05/24 07:45:23;;;;;;;11.23;4.47;;;13.10;99.90;;;;;;4957228;28;20023;-75
2023/05/24 07:47:49;;;;;;;9.65;4.30;;;13.10;99.90;;;;;;4960635;28;20031;-76
2023/05/24 07:50:15;;;;;;;16.17;5.00;;;13.10;99.90;;;;;;4997473;28;20449;-76
2023/05/24 07:52:41;;;;;;;13.00;4.60;;;13.00;99.90;;;;;;4959599;28;20019;-75
2023/05/24 07:55:13;;;;;;;13.10;5.28;;;13.00;99.90;;;;;;4958154;28;20102;-75
2023/05/24 07:57:41;;;;;;;14.07;4.70;;;13.00;99.90;;;;;;4963015;28;20038;-75
2023/05/24 08:00:16;;;;;;;13.45;4.70;;;13.00;99.90;;;;;;4957806;28;20031;-75
2023/05/24 08:02:45;;;;;;;9.38;4.50;;;13.10;99.90;;;;;;4957067;28;20034;-75
2023/05/24 08:05:15;;;;;;;14.57;4.07;;;13.00;99.90;;;;;;4952611;29;20070;-77
2023/05/24 08:07:44;;;;;;;13.43;4.60;;;13.00;99.90;;;;;;4965904;28;20023;-78
2023/05/24 08:10:12;;;;;;;10.10;5.10;;;13.00;99.90;;;;;;4956767;28;20732;-78
2023/05/24 08:12:41;;;;;;;9.65;4.20;;;12.90;99.90;;;;;;4959615;28;20059;-79
2023/05/24 08:15:07;;;;;;;12.07;4.88;;;12.90;99.90;;;;;;4973326;28;20474;-78
2023/05/24 08:17:34;;;;;;;10.80;4.22;;;12.80;99.90;;;;;;4964888;28;20023;-77
2023/05/24 08:20:07;;;;;;;17.67;4.32;;;12.80;99.90;;;;;;4968328;28;20027;-79
2023/05/24 08:22:33;;;;;;;10.90;4.82;;;12.80;99.90;;;;;;4966636;28;20046;-77
2023/05/24 08:25:02;;;;;;;11.75;4.13;;;12.80;99.90;;;;;;4962444;29;20039;-77
2023/05/24 08:27:29;;;;;;;14.07;4.15;;;12.80;99.90;;;;;;4964220;29;20030;-79
2023/05/24 08:30:05;;;;;;;10.90;4.35;;;12.80;99.90;;;;;;4964572;28;20030;-79
2023/05/24 08:32:31;;;;;;;14.68;4.80;;;12.80;99.90;;;;;;4968689;28;20035;-77
2023/05/24 08:34:59;;;;;;;11.00;4.10;;;12.70;99.90;;;;;;4960025;28;20030;-78
2023/05/24 08:37:26;;;;;;;13.18;4.82;;;12.70;99.90;;;;;;4962986;28;20081;-76
2023/05/24 08:39:51;;;;;;;12.45;5.15;;;12.70;99.90;;;;;;4965181;28;20019;-76
2023/05/24 08:42:23;;;;;;;15.82;4.70;;;12.70;99.90;;;;;;4960223;28;20110;-78
2023/05/24 08:44:56;;;;;;;13.75;4.55;;;12.70;99.90;;;;;;4962580;28;20063;-76
2023/05/24 08:47:25;;;;;;;13.32;4.40;;;12.70;99.90;;;;;;4964157;28;20023;-77
2023/05/24 08:49:54;;;;;;;11.40;5.03;;;12.60;99.90;;;;;;4962744;28;20098;-78
2023/05/24 08:52:24;;;;;;;12.15;4.57;;;12.60;99.90;;;;;;4962522;28;20050;-75
2023/05/24 08:54:54;;;;;;;11.45;4.68;;;12.50;99.90;;;;;;4967842;28;20027;-77
2023/05/24 08:57:21;;;;;;;11.93;5.28;;;12.50;99.90;;;;;;4970466;28;20142;-78
2023/05/24 08:59:47;;;;;;;12.52;5.53;;;12.50;99.90;;;;;;4989929;28;20042;-76
2023/05/24 09:02:14;;;;;;;14.25;5.30;;;12.40;99.90;;;;;;4961405;28;20034;-77
2023/05/24 09:04:43;;;;;;;12.60;4.97;;;12.30;99.90;;;;;;4955281;28;20027;-71
2023/05/24 09:07:13;;;;;;;14.88;6.75;;;12.30;99.90;;;;;;4963846;28;20031;-76
2023/05/24 09:09:44;;;;;;;25.33;5.70;;;12.40;99.90;;;;;;4964177;29;20083;-76
2023/05/24 09:12:13;;;;;;;14.43;4.88;;;12.50;99.90;;;;;;4963011;28;20018;-76
2023/05/24 09:14:46;;;;;;;15.38;5.05;;;12.50;99.90;;;;;;4952613;29;20037;-77
2023/05/24 09:17:15;;;;;;;13.88;5.20;;;12.60;99.90;;;;;;4958223;28;20530;-77
2023/05/24 09:19:49;;;;;;;16.08;6.18;;;12.70;99.90;;;;;;4961353;28;20533;-77
2023/05/24 09:22:18;;;;;;;;;;;12.80;99.90;;;;;;4955135;28;20066;-78
2023/05/24 09:24:47;;;;;;;15.13;5.68;;;12.90;99.90;;;;;;4959304;28;19915;-77
2023/05/24 09:27:22;;;;;;;14.52;5.28;;;13.00;99.90;;;;;;4962077;28;20023;-79
2023/05/24 09:29:52;;;;;;;15.63;5.68;;;13.00;99.90;;;;;;4999243;28;20027;-78
2023/05/24 09:32:22;;;;;;;18.08;6.50;;;13.10;99.90;;;;;;4964924;28;20414;-77
2023/05/24 09:34:48;;;;;;;13.90;5.95;;;13.10;99.90;;;;;;4982062;28;20023;-77
2023/05/24 09:37:18;;;;;;;10.65;5.45;;;13.10;99.90;;;;;;4966069;28;20023;-78
2023/05/24 09:39:46;;;;;;;16.45;5.90;;;13.10;99.90;;;;;;4967901;29;20031;-78
2023/05/24 09:42:36;;;;;;;14.15;5.47;;;13.20;99.90;;;;;;4969104;28;20026;-78
2023/05/24 09:45:07;;;;;;;12.82;5.75;;;13.20;99.90;;;;;;4971690;28;20031;-79
2023/05/24 09:47:35;;;;;;;10.68;6.35;;;13.30;99.90;;;;;;4968375;28;20023;-79
2023/05/24 09:50:02;;;;;;;13.85;5.30;;;13.50;99.90;;;;;;4964775;28;20031;-79
2023/05/24 09:52:28;;;;;;;15.68;6.28;;;13.60;99.90;;;;;;4967363;28;20023;-80
2023/05/24 09:54:53;;;;;;;16.98;6.13;;;13.70;99.90;;;;;;4966226;28;20023;-80
2023/05/24 09:57:24;;;;;;;14.40;4.95;;;13.70;99.90;;;;;;4968302;28;20023;-77
2023/05/24 09:59:52;;;;;;;11.18;5.30;;;13.70;99.90;;;;;;4968252;28;20486;-80
2023/05/24 10:02:22;;;;;;;13.05;5.30;;;13.70;99.90;;;;;;4966167;28;20039;-77
2023/05/24 10:04:56;;;;;;;11.60;5.28;;;13.60;99.90;;;;;;4963693;28;20098;-79
2023/05/24 10:07:28;;;;;;;15.93;6.13;;;13.60;99.90;;;;;;4961312;28;20031;-78
2023/05/24 10:09:54;;;;;;;17.92;6.10;;;13.60;99.90;;;;;;4955431;28;20030;-78
2023/05/24 10:12:21;;;;;;;13.50;5.75;;;13.50;99.90;;;;;;4978076;28;20019;-80
2023/05/24 10:14:48;;;;;;;11.35;5.40;;;13.50;99.90;;;;;;4961411;29;20023;-79
2023/05/24 10:17:14;;;;;;;16.48;5.97;;;13.60;99.90;;;;;;4965017;28;20522;-79
2023/05/24 10:19:40;;;;;;;14.82;6.10;;;13.50;99.90;;;;;;4970707;28;20080;-78
2023/05/24 10:22:08;;;;;;;18.42;5.30;;;13.50;99.90;;;;;;4953155;28;20035;-78
2023/05/24 10:24:46;;;;;;;10.57;4.55;;;13.50;99.90;;;;;;4950137;28;20039;-79
2023/05/24 10:27:22;;;;;;;11.38;5.18;;;13.50;99.90;;;;;;4962275;29;20111;-79
2023/05/24 10:30:03;;;;;;;15.85;5.75;;;13.40;99.90;;;;;;4966528;28;20011;-77
2023/05/24 10:32:33;;;;;;;13.55;5.18;;;13.40;99.90;;;;;;4955822;29;20031;-80
2023/05/24 10:35:05;;;;;;;13.40;5.60;;;13.40;99.90;;;;;;4965458;28;20039;-79
2023/05/24 10:37:34;;;;;;;20.65;5.93;;;13.50;99.90;;;;;;4963088;28;20055;-79
2023/05/24 10:40:05;;;;;;;15.27;5.40;;;13.50;99.90;;;;;;4961760;28;20050;-78
2023/05/24 10:42:32;;;;;;;13.63;5.03;;;13.40;99.90;;;;;;4964552;28;20042;-79
2023/05/24 10:44:58;;;;;;;16.05;5.13;;;13.50;99.90;;;;;;4962742;29;20035;-79
2023/05/24 10:47:28;;;;;;;10.93;5.43;;;13.50;99.90;;;;;;4985211;23;20061;-76
2023/05/24 10:50:03;;;;;;;14.70;5.45;;;13.30;99.90;;;;;;4965863;28;20164;-75
2023/05/24 10:52:35;;;;;;;9.00;4.43;;;13.30;99.90;;;;;;4968247;28;20053;-75
2023/05/24 10:55:06;;;;;;;13.95;5.55;;;13.20;99.90;;;;;;4964695;28;20037;-75
2023/05/24 10:57:33;;;;;;;15.25;5.47;;;13.20;99.90;;;;;;4970204;28;20027;-76
2023/05/24 11:00:29;;;;;;;8.63;4.70;;;13.00;99.90;;;;;;4964788;28;20094;-75
2023/05/24 11:03:09;;;;;;;16.95;4.45;;;13.00;99.90;;;;;;4969236;28;20106;-75
2023/05/24 11:05:48;;;;;;;14.48;4.63;;;12.90;99.90;;;;;;4973651;28;20026;-75
2023/05/24 11:08:20;;;;;;;17.17;5.70;;;12.90;99.90;;;;;;4967076;28;20023;-77
2023/05/24 11:10:46;;;;;;;17.65;5.70;;;13.00;99.90;;;;;;4966598;28;20371;-77
2023/05/24 11:13:12;;;;;;;19.33;6.38;;;13.00;99.90;;;;;;4974726;28;20022;-75
2023/05/24 11:15:38;;;;;;;12.73;5.13;;;13.00;99.90;;;;;;4973591;28;20080;-75
2023/05/24 11:18:13;;;;;;;15.35;5.25;;;12.90;99.90;;;;;;4974022;28;20029;-76
2023/05/24 11:20:43;;;;;;;15.75;5.38;;;12.90;99.90;;;;;;4970316;28;20445;-74
2023/05/24 11:23:14;;;;;;;17.00;5.97;;;12.90;99.90;;;;;;4978220;28;20030;-74
2023/05/24 11:25:40;;;;;;;14.02;5.10;;;12.90;99.90;;;;;;4973489;28;20034;-75
2023/05/24 11:28:10;;;;;;;20.90;5.80;;;12.90;99.90;;;;;;4973415;28;20065;-75
2023/05/24 11:30:43;;;;;;;15.43;5.30;;;12.80;99.90;;;;;;4976139;28;20429;-76
2023/05/24 11:33:22;;;;;;;9.63;4.90;;;12.80;99.90;;;;;;4974049;28;20031;-76
2023/05/24 11:35:53;;;;;;;11.55;4.72;;;12.80;99.90;;;;;;4973024;28;20023;-78
2023/05/24 11:38:20;;;;;;;17.17;4.65;;;12.80;99.90;;;;;;4975097;28;20027;-74
2023/05/24 11:40:48;;;;;;;12.43;4.63;;;12.80;99.90;;;;;;4975794;28;20081;-74
2023/05/24 11:43:18;;;;;;;14.50;5.13;;;12.80;99.90;;;;;;4972934;28;20107;-74
2023/05/24 11:45:49;;;;;;;10.80;4.88;;;12.80;99.90;;;;;;4970623;28;20019;-74
2023/05/24 11:48:17;;;;;;;16.05;5.35;;;12.80;99.90;;;;;;4972115;28;20126;-75
2023/05/24 11:50:48;;;;;;;19.00;5.55;;;12.90;99.90;;;;;;4972027;28;20077;-77
2023/05/24 11:53:21;;;;;;;19.58;5.38;;;12.90;99.90;;;;;;4970518;28;20027;-76
2023/05/24 11:55:53;;;;;;;14.32;5.45;;;12.80;99.90;;;;;;4969829;28;20034;-76
2023/05/24 11:58:34;;;;;;;16.30;5.20;;;12.80;99.90;;;;;;4972558;28;20822;-76
2023/05/24 12:01:01;;;;;;;8.15;4.80;;;12.80;99.90;;;;;;4964015;28;20106;-76
2023/05/24 12:03:27;;;;;;;13.82;5.43;;;12.80;99.90;;;;;;4971422;28;20031;-74
2023/05/24 12:05:56;;;;;;;13.90;5.30;;;12.70;99.90;;;;;;4970349;28;20058;-75
2023/05/24 12:08:22;;;;;;;16.05;5.22;;;12.80;99.90;;;;;;4974877;28;20042;-75
2023/05/24 12:10:49;;;;;;;15.70;5.65;;;12.80;99.90;;;;;;4973503;28;20034;-75
2023/05/24 12:13:23;;;;;;;17.17;6.20;;;12.80;99.90;;;;;;4972403;28;20474;-75
2023/05/24 12:15:54;;;;;;;16.92;5.95;;;12.90;99.90;;;;;;4972586;28;20091;-76
2023/05/24 12:18:22;;;;;;;18.85;6.10;;;12.90;99.90;;;;;;4972248;28;20029;-76
2023/05/24 12:20:54;;;;;;;18.55;6.00;;;12.80;99.90;;;;;;4972511;28;20046;-76
2023/05/24 12:23:22;;;;;;;13.02;5.78;;;12.80;99.90;;;;;;4972013;28;20045;-75
2023/05/24 12:26:03;;;;;;;15.80;6.15;;;12.90;99.90;;;;;;4969109;28;20089;-75
2023/05/24 12:28:37;;;;;;;20.45;6.53;;;12.80;99.90;;;;;;4972304;28;20026;-75
2023/05/24 12:31:04;;;;;;;16.50;5.68;;;12.90;99.90;;;;;;4975026;28;20098;-76
2023/05/24 12:33:30;;;;;;;14.85;6.10;;;13.00;99.90;;;;;;4978001;28;20018;-75
2023/05/24 12:35:57;;;;;;;15.52;6.60;;;13.00;99.90;;;;;;4972858;28;20457;-75
2023/05/24 12:38:26;;;;;;;16.90;6.45;;;13.00;99.90;;;;;;4974218;28;20029;-75
2023/05/24 12:40:59;;;;;;;12.32;5.45;;;13.00;99.90;;;;;;4988266;28;20078;-75
2023/05/24 12:43:25;;;;;;;8.63;5.40;;;13.00;99.90;;;;;;4969764;28;20027;-75
2023/05/24 12:45:51;;;;;;;21.30;6.38;;;13.10;99.90;;;;;;4971814;28;20076;-76
2023/05/24 12:48:17;;;;;;;11.27;4.97;;;13.20;99.90;;;;;;4974736;28;20035;-76